• Join FlightAware (Why Join?)
  • Login
  • US Flag 
02:27AM EDT


 

Airport Tracker/Info


-or-


 

Live Flight TrackerFlight Track Log ✈ AWI3551 ✈ 14-May-2013 ✈ KBUF - KPHL

Flight Track Log - Related Links

Times and Time Zones

All times are in EDT time to prevent confusion due to time zone crossing. See the AWI3551 flight status page for this flight to view local times or setup timezone preferences in your user account.

Time Position Orientation Groundspeed Altitude Reporting Facility
EDT Latitude Longitude Course Direction KTS MPH feet Rate Location/Type
05:36AM 42.9333 -78.7500 174° South 181 208 1,700  Level Buffalo TRACON
05:37AM 42.8667 -78.7667 190° South 219 252 4,400 2,400 Climbing Buffalo TRACON
05:38AM 42.6240 -78.6848 172° South  Level FlightAware Approximate
05:38AM 42.8253 -78.7631 176° South 278 320 5,900  Level Cleveland Center
05:39AM 42.5213 -78.6647 173° South  Level FlightAware Approximate
05:39AM 42.7458 -78.7511 174° South 285 328 8,400  Level Cleveland Center
05:40AM 42.4182 -78.6500 180° South  Level FlightAware Approximate
05:40AM 42.6789 -78.7306 167° South 290 334 10,200  Level Cleveland Center
05:41AM 42.3148 -78.6426 174° South  Level FlightAware Approximate
05:41AM 42.5889 -78.7161 173° South 303 349 12,700  Level Cleveland Center
05:42AM 42.4969 -78.6964 171° South 325 374 15,000 2,220 Climbing Cleveland Center
05:43AM 42.3967 -78.6769 172° South 350 403 17,200 1,800 Climbing Cleveland Center
05:44AM 42.2961 -78.6575 172° South 364 419 18,700 1,560 Climbing Cleveland Center
05:45AM 42.1875 -78.6356 171° South 382 440 20,400 1,500 Climbing Cleveland Center
05:46AM 42.0725 -78.6139 172° South 407 468 21,800 1,260 Climbing Cleveland Center
05:47AM 41.9650 -78.5558 158° South 412 474 23,000 600 Climbing Cleveland Center
05:48AM 41.8514 -78.4953 158° South 427 491 23,000  Level Cleveland Center
05:49AM 41.7378 -78.4322 158° South 441 507 23,000  Level Cleveland Center
05:50AM 41.6261 -78.3719 158° South 436 502 23,000  Level Cleveland Center
05:51AM 41.5206 -78.3144 158° South 423 487 23,000  Level Cleveland Center
05:52AM 41.3944 -78.2467 158° South 415 478 23,000  Level New York Center
05:53AM 41.2894 -78.1908 158° South 415 478 23,000  Level New York Center
05:54AM 41.1886 -78.1383 159° South 410 472 23,000  Level New York Center
05:55AM 41.0836 -78.0831 158° South 410 472 23,000  Level New York Center
05:56AM 40.9786 -78.0278 158° South 405 466 23,000  Level New York Center
05:57AM 40.8875 -77.9494 147° Southeast 405 466 23,000 -720 Level New York Center
05:58AM 40.8167 -77.8431 131° Southeast 388 447 21,700 -1,440 Descending New York Center
05:59AM 40.7461 -77.7344 131° Southeast 383 441 20,200 -1,500 Descending New York Center
06:00AM 40.6772 -77.6289 131° Southeast 383 441 18,700 -1,140 Descending New York Center
06:01AM 40.6117 -77.5375 133° Southeast 389 448 18,000 -360 Descending New York Center
06:02AM 40.5433 -77.4161 127° Southeast 383 441 18,000  Level New York Center
06:03AM 40.5125 -77.2958 109° East 378 435 18,000  Level New York Center
06:04AM 40.4708 -77.1444 110° East 395 455 18,000  Level New York Center
06:05AM 40.4378 -77.0214 109° East 400 460 18,000  Level New York Center
06:06AM 40.3992 -76.8842 110° East 395 455 18,000  Level New York Center
06:07AM 40.3642 -76.7503 109° East 395 455 18,000  Level New York Center
06:08AM 40.3250 -76.6189 111° Southeast 395 455 18,000 -120 Level New York Center
06:09AM 40.2864 -76.4714 109° East 395 455 17,800 -960 Descending New York Center
06:10AM 40.2542 -76.3572 110° East 385 443 16,100 -1,860 Descending New York Center
06:11AM 40.2186 -76.2294 110° East 350 403 14,100 -1,740 Descending New York Center
06:12AM 40.1883 -76.1183 110° East 338 389 12,600 -1,560 Descending New York Center
06:13AM 40.1556 -76.0097 112° Southeast 325 374 11,000 -1,500 Descending New York Center
06:14AM 40.1283 -75.9181 111° Southeast 308 354 9,600 -1,620 Descending New York Center
06:15AM 40.0958 -75.8044 110° East 301 346 7,900 -1,560 Descending New York Center
06:16AM 40.0806 -75.7167 103° East 291 335 6,500 -960 Descending New York Center
06:17AM 40.0747 -75.6075 94° East 278 320 6,000 -300 Descending New York Center
06:18AM 40.0703 -75.5150 94° East 278 320 6,000  Level New York Center
06:19AM 40.0642 -75.4061 94° East 273 314 6,000  Level New York Center
06:20AM 40.0592 -75.3164 94° East 273 314 6,000  Level New York Center
06:20AM 40.0500 -75.2333 98° East 271 312 6,000  Level Philadelphia TRACON
06:22AM 40.0333 -75.1667 108° East 209 241 6,000  Level Philadelphia TRACON
06:23AM 40.0000 -75.0833 118° Southeast 221 254 6,000 -540 Level Philadelphia TRACON
06:23AM 39.9667 -75.0333 131° Southeast 214 246 5,100 -1,320 Descending Philadelphia TRACON
06:24AM 39.9333 -75.0500 201° Southwest 189 217 3,700 -1,500 Descending Philadelphia TRACON
06:25AM 39.9000 -75.1000 229° Southwest 183 211 2,100 -1,380 Descending Philadelphia TRACON
06:26AM 39.9000 -75.1667 270° West 138 159 1,000 -960 Descending Philadelphia TRACON
06:27AM 39.8833 -75.2000 237° Southwest 128 147 200 -840 Descending Philadelphia TRACON
06:29AM 39.8667 -75.2333 247° West  Level FlightAware Approximate
06:36AM 39.8722 -75.2409 247° West  Level Estimated